Airfield :
LOGIN :

Register | Disclaimer

   EN    FR    IT 

 










Legend :    VFR   Marginal VFR   IFR   Intensive IFR   Very Intensive IFR
Visi :
Ceiling :
>= 8 km
>= 3000ft
5 to 8 km
1000 to 3000 ft
1500m to 5 km
500 to 1000 ft
800 to 1500m
200 to 500 ft
< 800m
< 200 ft
Symbols :   Thunderstorms  Fog  Heavy snow  Heavy precipitations  Wind > 20 kt
SIGMETs :     Misc.  Thunderstorms  Icing  Turbulence  Mountain Waves  Volcanic Ashes







- Airport Elevation : 137 ft
- IATA code : THN


ESGT - Trollhattan-Vanersborg

CURRENT METAR :
  • 192350Z AUTO 23027G45KT 200V260 6000 -RA FEW003/// SCT010/// BKN022/// 16/11 Q1005

EXPIRED METARs :
  • 192320Z AUTO 20019G30KT 9999 FEW008/// BKN024/// 18/14 Q1004
  • 192250Z AUTO 20018G29KT 9999 BKN026/// 18/13 Q1004
  • 192220Z AUTO 21018KT 9999 BKN027/// 18/13 Q1004
  • 192150Z AUTO 21018G28KT 9999 BKN026/// BKN034/// OVC041/// 18/13 Q1005
  • 192120Z AUTO 21016KT 9999 BKN027/// BKN059/// 18/13 Q1005
  • 192050Z AUTO 20016G26KT 9999 BKN028/// BKN061/// 18/13 Q1006

Expired Forecast.
No reported NOTAMs for that airfield.
1 SIGMET reported for the Sweden FIR (ESAA) :
 
Severe turbulence
ESAA SIGMET 1 VALID 192230/200100 ESSA
ESAA SWEDEN FIR SEV TURB FCST WI N6325 E01213 - N6301 E01428 - N6114 E01439 - N6017 E01233 - N6325 E01213 SFC/FL070 STNR NC=



MET'MAP, your aeronautical weather chart ! - Copyright ORBIFLY December 2007 - Disclaimer

ORBIFLY MET'MAP TEAM :

Programming & Development : Alexandra Zaïnal
Concept & Development : Baudouin d'Aumeries
Co-Development & Prog : Marc-Olivier Méhu
Technical & hardware support : Manuel Goepfert

Contact : metmap@orbifly.com




SOURCES & CREDITS :

   NOAA